Аэропорт: Толмачёво. Новосибирск

ICAO: UNNT

METAR:
2021-04-21 20:30:00
UNNT 212030Z 02004MPS CAVOK M03/M04 Q1030 R07/590150 R34/590150 NOSIG RMK QFE763/1017
METAR:
2021-04-21 20:00:00
TAF UNNT 212000Z 2121/2221 02005G12MPS 9999 BKN040CB TEMPO 2121/2202 1500 -SHSN BR BKN005 BKN016CB TEMPO 2202/2209 -SHSNRA SCT020CB FM221600 01003G08MPS 8000 SCT040